sensor_id;sensor_type;location;lat;lon;timestamp;P1;durP1;ratioP1;P2;durP2;ratioP2
29384;SDS011;16367;48.736;9.218;2023-01-01T00:01:59;29.52;;;15.98;;
29384;SDS011;16367;48.736;9.218;2023-01-01T00:04:01;27.45;;;14.98;;
29384;SDS011;16367;48.736;9.218;2023-01-01T00:06:04;27.48;;;15.70;;
29384;SDS011;16367;48.736;9.218;2023-01-01T00:08:07;25.95;;;13.40;;
29384;SDS011;16367;48.736;9.218;2023-01-01T00:10:10;21.63;;;12.43;;
29384;SDS011;16367;48.736;9.218;2023-01-01T00:12:30;21.40;;;10.80;;
29384;SDS011;16367;48.736;9.218;2023-01-01T00:14:34;22.55;;;12.23;;
29384;SDS011;16367;48.736;9.218;2023-01-01T00:16:39;22.98;;;11.82;;
29384;SDS011;16367;48.736;9.218;2023-01-01T00:18:42;20.50;;;11.20;;
29384;SDS011;16367;48.736;9.218;2023-01-01T00:20:44;18.55;;;9.90;;
29384;SDS011;16367;48.736;9.218;2023-01-01T00:22:47;21.00;;;10.88;;
29384;SDS011;16367;48.736;9.218;2023-01-01T00:24:56;16.60;;;8.98;;
29384;SDS011;16367;48.736;9.218;2023-01-01T00:26:58;15.68;;;8.57;;
29384;SDS011;16367;48.736;9.218;2023-01-01T00:29:01;15.90;;;7.75;;
29384;SDS011;16367;48.736;9.218;2023-01-01T00:31:06;15.20;;;8.88;;
29384;SDS011;16367;48.736;9.218;2023-01-01T00:33:09;16.80;;;9.07;;
29384;SDS011;16367;48.736;9.218;2023-01-01T00:35:12;19.00;;;8.43;;
29384;SDS011;16367;48.736;9.218;2023-01-01T00:37:14;17.63;;;8.93;;
29384;SDS011;16367;48.736;9.218;2023-01-01T00:39:18;16.70;;;8.07;;
29384;SDS011;16367;48.736;9.218;2023-01-01T00:41:21;13.43;;;6.85;;
29384;SDS011;16367;48.736;9.218;2023-01-01T00:43:24;10.73;;;5.70;;
29384;SDS011;16367;48.736;9.218;2023-01-01T00:45:27;12.82;;;6.50;;
29384;SDS011;16367;48.736;9.218;2023-01-01T00:47:31;11.63;;;6.03;;
29384;SDS011;16367;48.736;9.218;2023-01-01T00:49:33;13.45;;;6.38;;
29384;SDS011;16367;48.736;9.218;2023-01-01T00:51:36;10.65;;;5.93;;
29384;SDS011;16367;48.736;9.218;2023-01-01T00:53:39;12.60;;;6.90;;
29384;SDS011;16367;48.736;9.218;2023-01-01T00:55:41;13.70;;;6.72;;
29384;SDS011;16367;48.736;9.218;2023-01-01T00:57:44;13.35;;;6.22;;
29384;SDS011;16367;48.736;9.218;2023-01-01T00:59:47;12.75;;;6.45;;
29384;SDS011;16367;48.736;9.218;2023-01-01T01:01:50;11.77;;;5.93;;
29384;SDS011;16367;48.736;9.218;2023-01-01T01:03:54;11.00;;;5.68;;
29384;SDS011;16367;48.736;9.218;2023-01-01T01:05:58;10.27;;;5.60;;
29384;SDS011;16367;48.736;9.218;2023-01-01T01:08:01;11.00;;;5.70;;
29384;SDS011;16367;48.736;9.218;2023-01-01T01:10:05;12.60;;;6.03;;
29384;SDS011;16367;48.736;9.218;2023-01-01T01:12:09;12.40;;;5.93;;
29384;SDS011;16367;48.736;9.218;2023-01-01T01:14:19;11.75;;;6.28;;
29384;SDS011;16367;48.736;9.218;2023-01-01T01:16:22;11.52;;;6.43;;
29384;SDS011;16367;48.736;9.218;2023-01-01T01:18:27;11.00;;;5.72;;
29384;SDS011;16367;48.736;9.218;2023-01-01T01:20:31;14.00;;;7.07;;
29384;SDS011;16367;48.736;9.218;2023-01-01T01:22:33;13.07;;;7.18;;
29384;SDS011;16367;48.736;9.218;2023-01-01T01:24:36;13.27;;;6.07;;
29384;SDS011;16367;48.736;9.218;2023-01-01T01:26:39;10.40;;;5.65;;
29384;SDS011;16367;48.736;9.218;2023-01-01T01:28:42;11.93;;;5.47;;
29384;SDS011;16367;48.736;9.218;2023-01-01T01:30:50;12.93;;;6.03;;
29384;SDS011;16367;48.736;9.218;2023-01-01T01:32:53;12.50;;;6.72;;
29384;SDS011;16367;48.736;9.218;2023-01-01T01:34:55;12.30;;;6.25;;
29384;SDS011;16367;48.736;9.218;2023-01-01T01:36:59;12.15;;;5.75;;
29384;SDS011;16367;48.736;9.218;2023-01-01T01:39:02;14.98;;;6.65;;
29384;SDS011;16367;48.736;9.218;2023-01-01T01:41:05;12.13;;;5.70;;
29384;SDS011;16367;48.736;9.218;2023-01-01T01:43:09;13.82;;;6.38;;
29384;SDS011;16367;48.736;9.218;2023-01-01T01:45:20;11.38;;;6.07;;
29384;SDS011;16367;48.736;9.218;2023-01-01T01:47:32;12.90;;;6.07;;
29384;SDS011;16367;48.736;9.218;2023-01-01T01:49:39;14.02;;;6.07;;
29384;SDS011;16367;48.736;9.218;2023-01-01T01:51:43;12.50;;;5.55;;
29384;SDS011;16367;48.736;9.218;2023-01-01T01:53:48;12.68;;;6.05;;
29384;SDS011;16367;48.736;9.218;2023-01-01T01:55:55;12.13;;;6.45;;
29384;SDS011;16367;48.736;9.218;2023-01-01T01:58:01;11.30;;;5.55;;
29384;SDS011;16367;48.736;9.218;2023-01-01T02:00:05;12.68;;;6.53;;
29384;SDS011;16367;48.736;9.218;2023-01-01T02:02:13;13.30;;;6.28;;
29384;SDS011;16367;48.736;9.218;2023-01-01T02:04:21;11.77;;;5.53;;
29384;SDS011;16367;48.736;9.218;2023-01-01T02:06:24;12.30;;;5.90;;
29384;SDS011;16367;48.736;9.218;2023-01-01T02:08:28;13.15;;;5.78;;
29384;SDS011;16367;48.736;9.218;2023-01-01T02:10:32;12.98;;;5.43;;
29384;SDS011;16367;48.736;9.218;2023-01-01T02:12:35;11.73;;;6.18;;
29384;SDS011;16367;48.736;9.218;2023-01-01T02:14:38;12.02;;;5.35;;
29384;SDS011;16367;48.736;9.218;2023-01-01T02:16:41;11.77;;;5.63;;
29384;SDS011;16367;48.736;9.218;2023-01-01T02:18:49;12.35;;;5.97;;
29384;SDS011;16367;48.736;9.218;2023-01-01T02:21:01;11.68;;;5.47;;
29384;SDS011;16367;48.736;9.218;2023-01-01T02:25:42;9.80;;;5.03;;
29384;SDS011;16367;48.736;9.218;2023-01-01T02:27:56;13.55;;;6.65;;
29384;SDS011;16367;48.736;9.218;2023-01-01T02:30:04;13.27;;;6.35;;
29384;SDS011;16367;48.736;9.218;2023-01-01T02:32:09;12.70;;;6.18;;
29384;SDS011;16367;48.736;9.218;2023-01-01T02:34:14;11.13;;;5.35;;
29384;SDS011;16367;48.736;9.218;2023-01-01T02:36:21;13.48;;;5.78;;
29384;SDS011;16367;48.736;9.218;2023-01-01T02:38:27;11.85;;;5.88;;
29384;SDS011;16367;48.736;9.218;2023-01-01T02:40:33;13.48;;;6.18;;
29384;SDS011;16367;48.736;9.218;2023-01-01T02:42:39;10.80;;;5.57;;
29384;SDS011;16367;48.736;9.218;2023-01-01T02:44:42;12.55;;;6.35;;
29384;SDS011;16367;48.736;9.218;2023-01-01T02:46:51;11.93;;;6.07;;
29384;SDS011;16367;48.736;9.218;2023-01-01T02:48:53;13.98;;;6.40;;
29384;SDS011;16367;48.736;9.218;2023-01-01T02:50:56;11.77;;;5.50;;
29384;SDS011;16367;48.736;9.218;2023-01-01T02:53:06;14.80;;;6.55;;
29384;SDS011;16367;48.736;9.218;2023-01-01T02:55:18;11.35;;;5.47;;
29384;SDS011;16367;48.736;9.218;2023-01-01T02:57:29;11.48;;;5.70;;
29384;SDS011;16367;48.736;9.218;2023-01-01T02:59:40;12.10;;;5.70;;
29384;SDS011;16367;48.736;9.218;2023-01-01T03:02:14;10.77;;;4.13;;
29384;SDS011;16367;48.736;9.218;2023-01-01T03:04:24;8.68;;;4.05;;
29384;SDS011;16367;48.736;9.218;2023-01-01T03:06:34;8.57;;;4.10;;
29384;SDS011;16367;48.736;9.218;2023-01-01T03:08:44;8.63;;;3.95;;
29384;SDS011;16367;48.736;9.218;2023-01-01T03:10:52;9.27;;;4.03;;
29384;SDS011;16367;48.736;9.218;2023-01-01T03:13:01;9.98;;;4.43;;
29384;SDS011;16367;48.736;9.218;2023-01-01T03:15:13;8.82;;;4.30;;
29384;SDS011;16367;48.736;9.218;2023-01-01T03:17:24;9.68;;;4.63;;
29384;SDS011;16367;48.736;9.218;2023-01-01T03:19:32;11.75;;;4.55;;
29384;SDS011;16367;48.736;9.218;2023-01-01T03:21:42;11.65;;;4.40;;
29384;SDS011;16367;48.736;9.218;2023-01-01T03:23:49;9.60;;;3.78;;
29384;SDS011;16367;48.736;9.218;2023-01-01T03:25:56;9.93;;;4.15;;
29384;SDS011;16367;48.736;9.218;2023-01-01T03:28:04;10.00;;;4.20;;
29384;SDS011;16367;48.736;9.218;2023-01-01T03:30:12;8.68;;;3.83;;
29384;SDS011;16367;48.736;9.218;2023-01-01T03:32:19;10.02;;;3.90;;
29384;SDS011;16367;48.736;9.218;2023-01-01T03:34:48;8.43;;;3.90;;
29384;SDS011;16367;48.736;9.218;2023-01-01T03:36:55;9.98;;;3.67;;
29384;SDS011;16367;48.736;9.218;2023-01-01T03:41:09;8.68;;;3.80;;
29384;SDS011;16367;48.736;9.218;2023-01-01T03:43:15;11.38;;;3.75;;
29384;SDS011;16367;48.736;9.218;2023-01-01T03:45:23;9.38;;;3.40;;
29384;SDS011;16367;48.736;9.218;2023-01-01T03:47:29;8.75;;;3.60;;
29384;SDS011;16367;48.736;9.218;2023-01-01T03:49:32;8.95;;;3.95;;
29384;SDS011;16367;48.736;9.218;2023-01-01T03:56:15;8.85;;;3.53;;
29384;SDS011;16367;48.736;9.218;2023-01-01T03:58:23;8.18;;;3.55;;
29384;SDS011;16367;48.736;9.218;2023-01-01T04:00:33;8.23;;;3.58;;
29384;SDS011;16367;48.736;9.218;2023-01-01T04:02:39;7.43;;;3.00;;
29384;SDS011;16367;48.736;9.218;2023-01-01T04:04:46;9.20;;;3.75;;
29384;SDS011;16367;48.736;9.218;2023-01-01T04:06:50;9.63;;;3.78;;
29384;SDS011;16367;48.736;9.218;2023-01-01T04:08:55;7.82;;;3.53;;
29384;SDS011;16367;48.736;9.218;2023-01-01T04:11:00;7.60;;;3.10;;
29384;SDS011;16367;48.736;9.218;2023-01-01T04:13:27;7.20;;;3.55;;
29384;SDS011;16367;48.736;9.218;2023-01-01T04:15:30;10.85;;;3.63;;
29384;SDS011;16367;48.736;9.218;2023-01-01T04:17:33;8.18;;;3.70;;
29384;SDS011;16367;48.736;9.218;2023-01-01T04:19:36;8.30;;;3.30;;
29384;SDS011;16367;48.736;9.218;2023-01-01T04:21:39;8.48;;;3.17;;
29384;SDS011;16367;48.736;9.218;2023-01-01T04:23:41;8.05;;;3.50;;
29384;SDS011;16367;48.736;9.218;2023-01-01T04:25:45;8.70;;;4.05;;
29384;SDS011;16367;48.736;9.218;2023-01-01T04:27:48;8.15;;;3.28;;
29384;SDS011;16367;48.736;9.218;2023-01-01T04:29:51;7.57;;;3.53;;
29384;SDS011;16367;48.736;9.218;2023-01-01T04:31:54;7.47;;;3.40;;
29384;SDS011;16367;48.736;9.218;2023-01-01T04:33:56;9.38;;;3.60;;
29384;SDS011;16367;48.736;9.218;2023-01-01T04:36:01;8.25;;;3.38;;
29384;SDS011;16367;48.736;9.218;2023-01-01T04:38:06;9.35;;;3.17;;
29384;SDS011;16367;48.736;9.218;2023-01-01T04:40:09;8.00;;;2.97;;
29384;SDS011;16367;48.736;9.218;2023-01-01T04:42:14;8.00;;;3.15;;
29384;SDS011;16367;48.736;9.218;2023-01-01T04:44:16;7.30;;;2.80;;
29384;SDS011;16367;48.736;9.218;2023-01-01T04:46:20;8.30;;;3.78;;
29384;SDS011;16367;48.736;9.218;2023-01-01T04:48:24;7.28;;;2.72;;
29384;SDS011;16367;48.736;9.218;2023-01-01T04:50:27;7.32;;;3.22;;
29384;SDS011;16367;48.736;9.218;2023-01-01T04:52:30;8.13;;;2.85;;
29384;SDS011;16367;48.736;9.218;2023-01-01T04:54:33;8.82;;;2.95;;
29384;SDS011;16367;48.736;9.218;2023-01-01T04:56:35;8.20;;;3.50;;
29384;SDS011;16367;48.736;9.218;2023-01-01T04:58:40;7.55;;;2.83;;
29384;SDS011;16367;48.736;9.218;2023-01-01T05:00:46;7.65;;;3.00;;
29384;SDS011;16367;48.736;9.218;2023-01-01T05:04:52;9.32;;;3.15;;
29384;SDS011;16367;48.736;9.218;2023-01-01T05:06:55;7.45;;;3.03;;
29384;SDS011;16367;48.736;9.218;2023-01-01T05:08:58;9.13;;;2.88;;
29384;SDS011;16367;48.736;9.218;2023-01-01T05:11:02;7.28;;;3.25;;
29384;SDS011;16367;48.736;9.218;2023-01-01T05:13:06;9.27;;;3.40;;
29384;SDS011;16367;48.736;9.218;2023-01-01T05:15:11;5.70;;;2.88;;
29384;SDS011;16367;48.736;9.218;2023-01-01T05:17:14;6.95;;;2.75;;
29384;SDS011;16367;48.736;9.218;2023-01-01T05:19:16;7.75;;;2.90;;
29384;SDS011;16367;48.736;9.218;2023-01-01T05:21:20;5.50;;;2.50;;
29384;SDS011;16367;48.736;9.218;2023-01-01T05:23:24;5.80;;;2.63;;
29384;SDS011;16367;48.736;9.218;2023-01-01T05:25:26;7.95;;;2.92;;
29384;SDS011;16367;48.736;9.218;2023-01-01T05:27:29;7.57;;;2.90;;
29384;SDS011;16367;48.736;9.218;2023-01-01T05:29:32;7.47;;;2.97;;
29384;SDS011;16367;48.736;9.218;2023-01-01T05:31:36;7.57;;;3.05;;
29384;SDS011;16367;48.736;9.218;2023-01-01T05:33:39;6.05;;;2.67;;
29384;SDS011;16367;48.736;9.218;2023-01-01T05:35:44;7.13;;;2.58;;
29384;SDS011;16367;48.736;9.218;2023-01-01T05:37:47;6.03;;;2.90;;
29384;SDS011;16367;48.736;9.218;2023-01-01T05:39:52;6.93;;;2.83;;
29384;SDS011;16367;48.736;9.218;2023-01-01T05:41:54;7.57;;;3.10;;
29384;SDS011;16367;48.736;9.218;2023-01-01T05:43:57;6.50;;;2.65;;
29384;SDS011;16367;48.736;9.218;2023-01-01T05:46:00;8.25;;;3.25;;
29384;SDS011;16367;48.736;9.218;2023-01-01T05:48:05;6.43;;;2.97;;
29384;SDS011;16367;48.736;9.218;2023-01-01T05:50:08;6.10;;;2.58;;
29384;SDS011;16367;48.736;9.218;2023-01-01T05:52:09;7.32;;;2.92;;
29384;SDS011;16367;48.736;9.218;2023-01-01T05:54:12;6.70;;;2.45;;
29384;SDS011;16367;48.736;9.218;2023-01-01T05:56:14;6.45;;;2.63;;
29384;SDS011;16367;48.736;9.218;2023-01-01T05:58:17;6.78;;;2.80;;
29384;SDS011;16367;48.736;9.218;2023-01-01T06:00:20;6.85;;;2.90;;
29384;SDS011;16367;48.736;9.218;2023-01-01T06:02:23;6.10;;;2.60;;
29384;SDS011;16367;48.736;9.218;2023-01-01T06:04:27;7.95;;;2.92;;
29384;SDS011;16367;48.736;9.218;2023-01-01T06:06:30;6.13;;;2.70;;
29384;SDS011;16367;48.736;9.218;2023-01-01T06:08:34;6.07;;;2.60;;
29384;SDS011;16367;48.736;9.218;2023-01-01T06:10:36;6.95;;;2.80;;
29384;SDS011;16367;48.736;9.218;2023-01-01T06:12:39;7.82;;;2.70;;
29384;SDS011;16367;48.736;9.218;2023-01-01T06:14:42;7.53;;;2.63;;
29384;SDS011;16367;48.736;9.218;2023-01-01T06:16:44;6.32;;;2.65;;
29384;SDS011;16367;48.736;9.218;2023-01-01T06:18:47;6.20;;;2.45;;
29384;SDS011;16367;48.736;9.218;2023-01-01T06:20:51;6.63;;;2.70;;
29384;SDS011;16367;48.736;9.218;2023-01-01T06:22:54;8.38;;;2.30;;
29384;SDS011;16367;48.736;9.218;2023-01-01T06:24:57;5.90;;;2.20;;
29384;SDS011;16367;48.736;9.218;2023-01-01T06:26:59;7.10;;;2.42;;
29384;SDS011;16367;48.736;9.218;2023-01-01T06:29:02;8.25;;;2.55;;
29384;SDS011;16367;48.736;9.218;2023-01-01T06:31:05;6.43;;;2.45;;
29384;SDS011;16367;48.736;9.218;2023-01-01T06:33:09;6.95;;;2.55;;
29384;SDS011;16367;48.736;9.218;2023-01-01T06:35:12;5.53;;;2.40;;
29384;SDS011;16367;48.736;9.218;2023-01-01T06:37:16;7.00;;;2.65;;
29384;SDS011;16367;48.736;9.218;2023-01-01T06:39:18;5.68;;;2.28;;
29384;SDS011;16367;48.736;9.218;2023-01-01T06:41:21;6.07;;;2.30;;
29384;SDS011;16367;48.736;9.218;2023-01-01T06:43:25;7.32;;;2.30;;
29384;SDS011;16367;48.736;9.218;2023-01-01T06:45:28;5.60;;;2.30;;
29384;SDS011;16367;48.736;9.218;2023-01-01T06:47:32;6.20;;;2.33;;
29384;SDS011;16367;48.736;9.218;2023-01-01T06:49:35;6.72;;;2.30;;
29384;SDS011;16367;48.736;9.218;2023-01-01T06:51:38;5.95;;;2.30;;
29384;SDS011;16367;48.736;9.218;2023-01-01T06:53:43;5.88;;;2.30;;
29384;SDS011;16367;48.736;9.218;2023-01-01T06:55:47;7.07;;;2.47;;
29384;SDS011;16367;48.736;9.218;2023-01-01T06:57:57;6.75;;;2.20;;
29384;SDS011;16367;48.736;9.218;2023-01-01T06:59:59;5.65;;;2.40;;
29384;SDS011;16367;48.736;9.218;2023-01-01T07:02:02;6.13;;;2.25;;
29384;SDS011;16367;48.736;9.218;2023-01-01T07:04:06;5.68;;;2.15;;
29384;SDS011;16367;48.736;9.218;2023-01-01T07:06:11;6.38;;;2.22;;
29384;SDS011;16367;48.736;9.218;2023-01-01T07:08:14;4.95;;;2.05;;
29384;SDS011;16367;48.736;9.218;2023-01-01T07:10:18;5.75;;;2.28;;
29384;SDS011;16367;48.736;9.218;2023-01-01T07:12:20;5.10;;;2.17;;
29384;SDS011;16367;48.736;9.218;2023-01-01T07:14:23;5.22;;;1.95;;
29384;SDS011;16367;48.736;9.218;2023-01-01T07:16:25;5.97;;;2.10;;
29384;SDS011;16367;48.736;9.218;2023-01-01T07:18:28;5.88;;;1.90;;
29384;SDS011;16367;48.736;9.218;2023-01-01T07:20:31;5.53;;;2.10;;
29384;SDS011;16367;48.736;9.218;2023-01-01T07:22:33;6.00;;;2.53;;
29384;SDS011;16367;48.736;9.218;2023-01-01T07:24:37;5.72;;;2.00;;
29384;SDS011;16367;48.736;9.218;2023-01-01T07:26:41;6.00;;;1.95;;
29384;SDS011;16367;48.736;9.218;2023-01-01T07:28:44;5.13;;;2.00;;
29384;SDS011;16367;48.736;9.218;2023-01-01T07:30:47;7.82;;;2.00;;
29384;SDS011;16367;48.736;9.218;2023-01-01T07:32:53;5.32;;;1.63;;
29384;SDS011;16367;48.736;9.218;2023-01-01T07:34:56;4.90;;;1.70;;
29384;SDS011;16367;48.736;9.218;2023-01-01T07:36:58;4.70;;;1.70;;
29384;SDS011;16367;48.736;9.218;2023-01-01T07:39:01;5.07;;;1.50;;
29384;SDS011;16367;48.736;9.218;2023-01-01T07:41:04;5.40;;;1.75;;
29384;SDS011;16367;48.736;9.218;2023-01-01T07:43:08;4.80;;;1.80;;
29384;SDS011;16367;48.736;9.218;2023-01-01T07:45:12;4.97;;;1.85;;
29384;SDS011;16367;48.736;9.218;2023-01-01T07:47:17;5.80;;;1.63;;
29384;SDS011;16367;48.736;9.218;2023-01-01T07:49:23;5.38;;;1.85;;
29384;SDS011;16367;48.736;9.218;2023-01-01T07:51:25;5.97;;;2.05;;
29384;SDS011;16367;48.736;9.218;2023-01-01T07:53:28;5.93;;;2.00;;
29384;SDS011;16367;48.736;9.218;2023-01-01T07:55:30;5.50;;;1.80;;
29384;SDS011;16367;48.736;9.218;2023-01-01T07:57:34;5.57;;;2.03;;
29384;SDS011;16367;48.736;9.218;2023-01-01T07:59:38;7.85;;;2.28;;
29384;SDS011;16367;48.736;9.218;2023-01-01T08:01:40;6.22;;;2.45;;
29384;SDS011;16367;48.736;9.218;2023-01-01T08:03:43;6.40;;;2.03;;
29384;SDS011;16367;48.736;9.218;2023-01-01T08:05:46;6.68;;;1.90;;
29384;SDS011;16367;48.736;9.218;2023-01-01T08:07:49;5.03;;;2.30;;
29384;SDS011;16367;48.736;9.218;2023-01-01T08:09:52;5.32;;;2.00;;
29384;SDS011;16367;48.736;9.218;2023-01-01T08:11:55;6.43;;;2.47;;
29384;SDS011;16367;48.736;9.218;2023-01-01T08:13:58;5.60;;;2.22;;
29384;SDS011;16367;48.736;9.218;2023-01-01T08:16:03;6.05;;;2.20;;
29384;SDS011;16367;48.736;9.218;2023-01-01T08:18:06;5.47;;;2.22;;
29384;SDS011;16367;48.736;9.218;2023-01-01T08:20:09;8.13;;;2.78;;
29384;SDS011;16367;48.736;9.218;2023-01-01T08:22:12;6.53;;;2.17;;
29384;SDS011;16367;48.736;9.218;2023-01-01T08:24:14;8.27;;;2.83;;
29384;SDS011;16367;48.736;9.218;2023-01-01T08:26:18;5.90;;;2.30;;
29384;SDS011;16367;48.736;9.218;2023-01-01T08:28:29;7.78;;;2.60;;
29384;SDS011;16367;48.736;9.218;2023-01-01T08:30:32;5.47;;;2.28;;
29384;SDS011;16367;48.736;9.218;2023-01-01T08:32:36;7.25;;;2.60;;
29384;SDS011;16367;48.736;9.218;2023-01-01T08:34:39;5.13;;;2.15;;
29384;SDS011;16367;48.736;9.218;2023-01-01T08:36:41;5.57;;;2.25;;
29384;SDS011;16367;48.736;9.218;2023-01-01T08:38:44;9.32;;;2.65;;
29384;SDS011;16367;48.736;9.218;2023-01-01T08:40:47;7.97;;;3.30;;
29384;SDS011;16367;48.736;9.218;2023-01-01T08:42:49;7.70;;;2.38;;
29384;SDS011;16367;48.736;9.218;2023-01-01T08:44:52;7.45;;;2.70;;
29384;SDS011;16367;48.736;9.218;2023-01-01T08:46:55;7.50;;;2.42;;
29384;SDS011;16367;48.736;9.218;2023-01-01T08:48:59;6.18;;;2.40;;
29384;SDS011;16367;48.736;9.218;2023-01-01T08:51:01;8.15;;;2.10;;
29384;SDS011;16367;48.736;9.218;2023-01-01T08:53:04;4.70;;;2.28;;
29384;SDS011;16367;48.736;9.218;2023-01-01T08:55:07;6.57;;;2.38;;
29384;SDS011;16367;48.736;9.218;2023-01-01T08:57:10;5.80;;;2.33;;
29384;SDS011;16367;48.736;9.218;2023-01-01T08:59:14;4.60;;;2.05;;
29384;SDS011;16367;48.736;9.218;2023-01-01T09:01:16;6.85;;;2.33;;
29384;SDS011;16367;48.736;9.218;2023-01-01T09:03:22;6.32;;;2.08;;
29384;SDS011;16367;48.736;9.218;2023-01-01T09:05:26;6.53;;;2.28;;
29384;SDS011;16367;48.736;9.218;2023-01-01T09:07:28;6.50;;;2.63;;
29384;SDS011;16367;48.736;9.218;2023-01-01T09:09:31;6.93;;;2.40;;
29384;SDS011;16367;48.736;9.218;2023-01-01T09:11:34;6.38;;;2.42;;
29384;SDS011;16367;48.736;9.218;2023-01-01T09:13:37;4.95;;;2.10;;
29384;SDS011;16367;48.736;9.218;2023-01-01T09:15:40;7.32;;;2.25;;
29384;SDS011;16367;48.736;9.218;2023-01-01T09:17:44;5.22;;;2.25;;
29384;SDS011;16367;48.736;9.218;2023-01-01T09:19:46;4.78;;;1.58;;
29384;SDS011;16367;48.736;9.218;2023-01-01T09:21:50;6.90;;;2.20;;
29384;SDS011;16367;48.736;9.218;2023-01-01T09:23:53;5.20;;;2.05;;
29384;SDS011;16367;48.736;9.218;2023-01-01T09:26:00;8.57;;;2.30;;
29384;SDS011;16367;48.736;9.218;2023-01-01T09:28:04;4.53;;;1.80;;
29384;SDS011;16367;48.736;9.218;2023-01-01T09:30:08;5.68;;;2.33;;
29384;SDS011;16367;48.736;9.218;2023-01-01T09:32:12;6.00;;;2.33;;
29384;SDS011;16367;48.736;9.218;2023-01-01T09:34:15;6.30;;;2.10;;
29384;SDS011;16367;48.736;9.218;2023-01-01T09:36:25;6.22;;;1.92;;
29384;SDS011;16367;48.736;9.218;2023-01-01T09:38:30;7.45;;;2.67;;
29384;SDS011;16367;48.736;9.218;2023-01-01T09:40:35;6.57;;;2.55;;
29384;SDS011;16367;48.736;9.218;2023-01-01T09:42:52;5.18;;;2.13;;
29384;SDS011;16367;48.736;9.218;2023-01-01T09:45:10;7.90;;;2.40;;
29384;SDS011;16367;48.736;9.218;2023-01-01T09:47:23;6.18;;;2.17;;
29384;SDS011;16367;48.736;9.218;2023-01-01T09:49:33;5.97;;;2.45;;
29384;SDS011;16367;48.736;9.218;2023-01-01T09:51:39;4.97;;;2.20;;
29384;SDS011;16367;48.736;9.218;2023-01-01T09:53:56;7.13;;;2.13;;
29384;SDS011;16367;48.736;9.218;2023-01-01T09:56:09;7.55;;;2.25;;
29384;SDS011;16367;48.736;9.218;2023-01-01T09:58:16;6.60;;;2.05;;
29384;SDS011;16367;48.736;9.218;2023-01-01T10:00:25;5.97;;;2.38;;
29384;SDS011;16367;48.736;9.218;2023-01-01T10:02:34;6.07;;;2.10;;
29384;SDS011;16367;48.736;9.218;2023-01-01T10:04:56;6.45;;;2.28;;
29384;SDS011;16367;48.736;9.218;2023-01-01T10:07:07;7.38;;;2.00;;
29384;SDS011;16367;48.736;9.218;2023-01-01T10:09:20;6.78;;;2.25;;
29384;SDS011;16367;48.736;9.218;2023-01-01T10:11:30;6.75;;;3.00;;
29384;SDS011;16367;48.736;9.218;2023-01-01T10:15:46;7.35;;;2.10;;
29384;SDS011;16367;48.736;9.218;2023-01-01T10:17:56;5.15;;;2.15;;
29384;SDS011;16367;48.736;9.218;2023-01-01T10:20:02;4.65;;;1.92;;
29384;SDS011;16367;48.736;9.218;2023-01-01T10:22:14;6.10;;;2.22;;
29384;SDS011;16367;48.736;9.218;2023-01-01T10:26:47;4.50;;;2.05;;
29384;SDS011;16367;48.736;9.218;2023-01-01T10:28:53;5.07;;;2.00;;
29384;SDS011;16367;48.736;9.218;2023-01-01T10:31:09;5.25;;;1.90;;
29384;SDS011;16367;48.736;9.218;2023-01-01T10:33:18;6.55;;;2.00;;
29384;SDS011;16367;48.736;9.218;2023-01-01T10:35:21;6.35;;;2.05;;
29384;SDS011;16367;48.736;9.218;2023-01-01T10:37:32;4.78;;;2.03;;
29384;SDS011;16367;48.736;9.218;2023-01-01T10:39:38;5.13;;;2.10;;
29384;SDS011;16367;48.736;9.218;2023-01-01T10:41:43;7.00;;;2.08;;
29384;SDS011;16367;48.736;9.218;2023-01-01T10:43:46;6.60;;;2.00;;
29384;SDS011;16367;48.736;9.218;2023-01-01T10:45:51;6.30;;;2.50;;
29384;SDS011;16367;48.736;9.218;2023-01-01T10:48:15;6.70;;;2.88;;
29384;SDS011;16367;48.736;9.218;2023-01-01T10:50:19;6.82;;;2.35;;
29384;SDS011;16367;48.736;9.218;2023-01-01T10:52:23;7.35;;;2.22;;
29384;SDS011;16367;48.736;9.218;2023-01-01T10:54:32;5.80;;;2.03;;
29384;SDS011;16367;48.736;9.218;2023-01-01T10:56:38;5.22;;;2.15;;
29384;SDS011;16367;48.736;9.218;2023-01-01T11:00:52;6.40;;;3.08;;
29384;SDS011;16367;48.736;9.218;2023-01-01T11:03:04;5.78;;;2.03;;
29384;SDS011;16367;48.736;9.218;2023-01-01T11:05:16;6.75;;;2.30;;
29384;SDS011;16367;48.736;9.218;2023-01-01T11:07:26;5.30;;;2.00;;
29384;SDS011;16367;48.736;9.218;2023-01-01T11:09:30;4.97;;;2.03;;
29384;SDS011;16367;48.736;9.218;2023-01-01T11:11:36;7.72;;;2.03;;
29384;SDS011;16367;48.736;9.218;2023-01-01T11:13:45;7.93;;;2.45;;
29384;SDS011;16367;48.736;9.218;2023-01-01T11:15:50;7.70;;;2.20;;
29384;SDS011;16367;48.736;9.218;2023-01-01T11:18:00;7.28;;;2.30;;
29384;SDS011;16367;48.736;9.218;2023-01-01T11:20:05;5.88;;;2.33;;
29384;SDS011;16367;48.736;9.218;2023-01-01T11:22:09;6.20;;;2.13;;
29384;SDS011;16367;48.736;9.218;2023-01-01T11:24:39;6.18;;;2.33;;
29384;SDS011;16367;48.736;9.218;2023-01-01T11:26:42;6.28;;;2.28;;
29384;SDS011;16367;48.736;9.218;2023-01-01T11:28:59;7.72;;;2.65;;
29384;SDS011;16367;48.736;9.218;2023-01-01T11:31:04;6.88;;;2.28;;
29384;SDS011;16367;48.736;9.218;2023-01-01T11:33:14;6.07;;;2.10;;
29384;SDS011;16367;48.736;9.218;2023-01-01T11:35:19;5.55;;;2.05;;
29384;SDS011;16367;48.736;9.218;2023-01-01T11:37:25;5.38;;;2.28;;
29384;SDS011;16367;48.736;9.218;2023-01-01T11:39:33;6.57;;;1.98;;
29384;SDS011;16367;48.736;9.218;2023-01-01T11:41:41;10.40;;;2.30;;
29384;SDS011;16367;48.736;9.218;2023-01-01T11:43:46;6.13;;;2.10;;
29384;SDS011;16367;48.736;9.218;2023-01-01T11:45:51;6.38;;;2.10;;
29384;SDS011;16367;48.736;9.218;2023-01-01T11:47:56;7.78;;;2.30;;
29384;SDS011;16367;48.736;9.218;2023-01-01T11:50:05;7.65;;;2.20;;
29384;SDS011;16367;48.736;9.218;2023-01-01T11:54:45;5.70;;;1.90;;
29384;SDS011;16367;48.736;9.218;2023-01-01T11:56:49;6.88;;;2.33;;
29384;SDS011;16367;48.736;9.218;2023-01-01T11:58:56;7.82;;;2.22;;
29384;SDS011;16367;48.736;9.218;2023-01-01T12:01:02;6.45;;;2.00;;
29384;SDS011;16367;48.736;9.218;2023-01-01T12:03:14;5.25;;;1.92;;
29384;SDS011;16367;48.736;9.218;2023-01-01T12:05:33;5.90;;;2.22;;
29384;SDS011;16367;48.736;9.218;2023-01-01T12:07:42;4.18;;;1.50;;
29384;SDS011;16367;48.736;9.218;2023-01-01T12:09:47;5.63;;;1.80;;
29384;SDS011;16367;48.736;9.218;2023-01-01T12:11:56;6.32;;;1.67;;
29384;SDS011;16367;48.736;9.218;2023-01-01T12:14:07;7.95;;;1.88;;
29384;SDS011;16367;48.736;9.218;2023-01-01T12:16:21;5.80;;;1.98;;
29384;SDS011;16367;48.736;9.218;2023-01-01T12:18:32;5.20;;;1.40;;
29384;SDS011;16367;48.736;9.218;2023-01-01T12:20:39;6.18;;;1.67;;
29384;SDS011;16367;48.736;9.218;2023-01-01T12:22:46;5.28;;;1.27;;
29384;SDS011;16367;48.736;9.218;2023-01-01T12:24:50;8.10;;;1.70;;
29384;SDS011;16367;48.736;9.218;2023-01-01T12:27:00;5.35;;;1.60;;
29384;SDS011;16367;48.736;9.218;2023-01-01T12:29:23;6.47;;;1.55;;
29384;SDS011;16367;48.736;9.218;2023-01-01T12:31:39;6.00;;;1.70;;
29384;SDS011;16367;48.736;9.218;2023-01-01T12:33:56;4.95;;;1.50;;
29384;SDS011;16367;48.736;9.218;2023-01-01T12:36:14;4.60;;;1.70;;
29384;SDS011;16367;48.736;9.218;2023-01-01T12:38:31;6.68;;;1.70;;
29384;SDS011;16367;48.736;9.218;2023-01-01T12:40:46;5.78;;;1.60;;
29384;SDS011;16367;48.736;9.218;2023-01-01T12:42:57;4.63;;;1.50;;
29384;SDS011;16367;48.736;9.218;2023-01-01T12:47:38;5.63;;;1.67;;
29384;SDS011;16367;48.736;9.218;2023-01-01T12:49:50;4.65;;;1.60;;
29384;SDS011;16367;48.736;9.218;2023-01-01T12:52:03;8.55;;;1.80;;
29384;SDS011;16367;48.736;9.218;2023-01-01T12:54:32;5.28;;;1.48;;
29384;SDS011;16367;48.736;9.218;2023-01-01T12:56:48;5.75;;;1.73;;
29384;SDS011;16367;48.736;9.218;2023-01-01T12:58:59;4.32;;;1.60;;